createdAt,value
2022-10-17T00:01:29.235Z,14.30
2022-10-17T00:03:55.840Z,14.30
2022-10-17T00:06:22.363Z,14.30
2022-10-17T00:08:48.935Z,14.20
2022-10-17T00:11:23.594Z,14.20
2022-10-17T00:13:53.593Z,14.20
2022-10-17T00:16:26.229Z,14.20
2022-10-17T00:18:53.061Z,14.10
2022-10-17T00:21:20.703Z,14.10
2022-10-17T00:23:48.158Z,14.10
2022-10-17T00:26:15.703Z,14.10
2022-10-17T00:28:42.766Z,14.10
2022-10-17T00:31:09.385Z,14.10
2022-10-17T00:33:36.688Z,14.00
2022-10-17T00:36:13.448Z,14.10
2022-10-17T00:38:41.402Z,14.10
2022-10-17T00:41:15.038Z,14.10
2022-10-17T00:43:51.622Z,14.10
2022-10-17T00:46:18.839Z,14.10
2022-10-17T00:48:46.089Z,14.20
2022-10-17T00:51:12.652Z,14.10
2022-10-17T00:53:40.023Z,14.10
2022-10-17T00:56:06.883Z,14.10
2022-10-17T00:58:33.438Z,14.10
2022-10-17T01:01:01.510Z,14.10
2022-10-17T01:03:28.169Z,14.00
2022-10-17T01:05:54.953Z,14.00
2022-10-17T01:08:21.564Z,14.00
2022-10-17T01:11:11.615Z,14.00
2022-10-17T01:13:55.626Z,14.00
2022-10-17T01:16:51.918Z,13.90
2022-10-17T01:19:40.320Z,13.90
2022-10-17T01:22:16.349Z,13.90
2022-10-17T01:25:00.733Z,13.90
2022-10-17T01:27:55.939Z,13.90
2022-10-17T01:30:54.614Z,13.80
2022-10-17T01:33:39.898Z,13.70
2022-10-17T01:36:15.270Z,13.70
2022-10-17T01:38:54.950Z,13.60
2022-10-17T01:41:27.887Z,13.70
2022-10-17T01:44:10.894Z,13.70
2022-10-17T01:46:49.328Z,13.70
2022-10-17T01:49:19.908Z,13.60
2022-10-17T01:51:54.583Z,13.60
2022-10-17T01:54:32.321Z,13.60
2022-10-17T01:57:03.914Z,13.60
2022-10-17T01:59:39.557Z,13.60
2022-10-17T02:02:07.298Z,13.60
2022-10-17T02:04:35.638Z,13.60
2022-10-17T02:07:12.574Z,13.50
2022-10-17T02:09:39.710Z,13.50
2022-10-17T02:12:27.690Z,13.50
2022-10-17T02:15:27.957Z,13.40
2022-10-17T02:18:35.769Z,13.50
2022-10-17T02:21:27.280Z,13.40
2022-10-17T02:24:05.375Z,13.40
2022-10-17T02:26:38.986Z,13.40
2022-10-17T02:29:21.657Z,13.40
2022-10-17T02:32:04.223Z,13.30
2022-10-17T02:34:41.457Z,13.30
2022-10-17T02:37:12.029Z,13.20
2022-10-17T02:39:39.920Z,13.10
2022-10-17T02:44:53.188Z,13.10
2022-10-17T02:47:30.283Z,13.10
2022-10-17T02:49:58.433Z,13.10
2022-10-17T02:53:04.473Z,13.20
2022-10-17T02:55:39.056Z,13.20
2022-10-17T02:58:12.021Z,13.20
2022-10-17T03:00:40.053Z,13.20
2022-10-17T03:03:21.014Z,13.20
2022-10-17T03:05:47.593Z,13.20
2022-10-17T03:08:14.206Z,13.20
2022-10-17T03:10:40.778Z,13.00
2022-10-17T03:13:07.323Z,13.10
2022-10-17T03:15:33.801Z,13.00
2022-10-17T03:18:00.322Z,12.90
2022-10-17T03:20:26.878Z,12.90
2022-10-17T03:22:53.409Z,12.90
2022-10-17T03:25:19.917Z,12.90
2022-10-17T03:27:46.640Z,12.80
2022-10-17T03:30:13.263Z,12.80
2022-10-17T03:32:39.761Z,12.80
2022-10-17T03:35:07.661Z,12.80
2022-10-17T03:37:34.922Z,12.80
2022-10-17T03:40:01.546Z,12.80
2022-10-17T03:42:28.191Z,12.70
2022-10-17T03:44:54.700Z,12.70
2022-10-17T03:47:21.266Z,12.80
2022-10-17T03:49:47.829Z,12.80
2022-10-17T03:52:14.946Z,12.70
2022-10-17T03:54:41.800Z,12.70
2022-10-17T03:57:08.371Z,12.70
2022-10-17T03:59:35.028Z,12.70
2022-10-17T04:02:01.606Z,12.70
2022-10-17T04:04:28.148Z,12.70
2022-10-17T04:06:54.646Z,12.70
2022-10-17T04:09:21.232Z,12.70
2022-10-17T04:11:47.782Z,12.70
2022-10-17T04:14:14.327Z,12.80
2022-10-17T04:16:41.039Z,12.80
2022-10-17T04:19:07.696Z,12.80
2022-10-17T04:21:34.204Z,12.80
2022-10-17T04:24:01.099Z,12.80
2022-10-17T04:26:28.001Z,12.80
2022-10-17T04:28:54.625Z,12.80
2022-10-17T04:31:21.749Z,12.80
2022-10-17T04:33:50.121Z,12.80
2022-10-17T04:36:20.343Z,12.80
2022-10-17T04:38:47.301Z,12.70
2022-10-17T04:41:16.768Z,12.70
2022-10-17T04:43:46.884Z,12.70
2022-10-17T04:46:16.889Z,12.70
2022-10-17T04:48:43.414Z,12.70
2022-10-17T04:51:15.479Z,12.60
2022-10-17T04:53:43.090Z,12.70
2022-10-17T04:56:18.746Z,12.70
2022-10-17T04:58:46.098Z,12.70
2022-10-17T05:01:15.234Z,12.70
2022-10-17T05:03:42.393Z,12.70
2022-10-17T05:06:11.634Z,12.60
2022-10-17T05:08:38.677Z,12.60
2022-10-17T05:11:06.037Z,12.60
2022-10-17T05:13:32.826Z,12.60
2022-10-17T05:16:00.879Z,12.60
2022-10-17T05:18:28.529Z,12.50
2022-10-17T05:20:56.621Z,12.50
2022-10-17T05:23:23.347Z,12.50
2022-10-17T05:25:55.174Z,12.50
2022-10-17T05:28:22.296Z,12.50
2022-10-17T05:30:49.145Z,12.50
2022-10-17T05:33:16.170Z,12.40
2022-10-17T05:35:42.710Z,12.30
2022-10-17T05:38:09.375Z,12.40
2022-10-17T05:40:35.936Z,12.40
2022-10-17T05:43:02.502Z,12.40
2022-10-17T05:45:29.123Z,12.40
2022-10-17T05:47:55.605Z,12.40
2022-10-17T05:50:23.926Z,12.40
2022-10-17T05:52:54.121Z,12.40
2022-10-17T05:55:20.866Z,12.40
2022-10-17T05:57:47.413Z,12.40
2022-10-17T06:00:14.474Z,12.40
2022-10-17T06:02:41.393Z,12.40
2022-10-17T06:05:08.389Z,12.40
2022-10-17T06:07:35.804Z,12.40
2022-10-17T06:10:02.289Z,12.40
2022-10-17T06:12:29.160Z,12.40
2022-10-17T06:14:55.825Z,12.40
2022-10-17T06:17:22.445Z,12.40
2022-10-17T06:19:48.941Z,12.40
2022-10-17T06:22:15.487Z,12.40
2022-10-17T06:24:42.450Z,12.40
2022-10-17T06:27:11.996Z,12.30
2022-10-17T06:29:39.136Z,12.30
2022-10-17T06:32:08.642Z,12.40
2022-10-17T06:34:37.818Z,12.50
2022-10-17T06:37:04.581Z,12.50
2022-10-17T06:39:33.777Z,12.50
2022-10-17T06:42:01.134Z,12.50
2022-10-17T06:44:31.430Z,12.60
2022-10-17T06:46:59.042Z,12.60
2022-10-17T06:49:25.789Z,12.70
2022-10-17T06:51:52.432Z,12.70
2022-10-17T06:54:19.197Z,12.80
2022-10-17T06:56:45.723Z,12.80
2022-10-17T06:59:12.640Z,12.90
2022-10-17T07:01:41.788Z,12.90
2022-10-17T07:04:11.082Z,13.00
2022-10-17T07:06:38.888Z,13.00
2022-10-17T07:09:06.836Z,13.10
2022-10-17T07:11:36.757Z,13.10
2022-10-17T07:14:03.629Z,13.20
2022-10-17T07:16:30.182Z,13.40
2022-10-17T07:18:56.968Z,13.50
2022-10-17T07:21:23.860Z,13.50
2022-10-17T07:23:50.385Z,13.70
2022-10-17T07:26:18.642Z,13.70
2022-10-17T07:28:47.797Z,13.90
2022-10-17T07:31:19.143Z,13.90
2022-10-17T07:36:19.037Z,14.10
2022-10-17T07:38:45.595Z,14.10
2022-10-17T07:41:16.565Z,14.20
2022-10-17T07:43:45.941Z,14.30
2022-10-17T07:46:12.590Z,14.40
2022-10-17T07:48:40.117Z,14.50
2022-10-17T07:51:08.446Z,14.60
2022-10-17T07:53:36.620Z,14.70
2022-10-17T07:56:08.054Z,14.80
2022-10-17T07:58:35.517Z,14.90
2022-10-17T08:01:09.447Z,15.00
2022-10-17T08:03:38.782Z,15.10
2022-10-17T08:06:05.514Z,15.20
2022-10-17T08:08:32.344Z,15.30
2022-10-17T08:11:05.337Z,15.40
2022-10-17T08:13:32.589Z,15.60
2022-10-17T08:16:01.042Z,15.70
2022-10-17T08:18:27.558Z,15.80
2022-10-17T08:20:56.802Z,15.90
2022-10-17T08:23:27.363Z,16.00
2022-10-17T08:25:53.861Z,16.20
2022-10-17T08:28:20.423Z,16.30
2022-10-17T08:30:46.908Z,16.50
2022-10-17T08:33:13.513Z,16.60
2022-10-17T08:35:40.116Z,16.70
2022-10-17T08:38:09.047Z,16.70
2022-10-17T08:40:42.426Z,16.80
2022-10-17T08:43:14.704Z,16.90
2022-10-17T08:46:02.917Z,16.90
2022-10-17T08:48:34.081Z,16.90
2022-10-17T08:51:24.194Z,16.90
2022-10-17T08:54:05.438Z,17.00
2022-10-17T08:56:50.986Z,17.00
2022-10-17T08:59:23.256Z,17.00
2022-10-17T09:02:22.866Z,17.10
2022-10-17T09:05:26.377Z,17.20
2022-10-17T09:07:57.930Z,17.30
2022-10-17T09:10:52.535Z,17.50
2022-10-17T09:13:37.777Z,17.60
2022-10-17T09:16:30.130Z,17.70
2022-10-17T09:19:17.880Z,17.80
2022-10-17T09:21:59.641Z,17.90
2022-10-17T09:24:37.705Z,17.90
2022-10-17T09:27:05.584Z,18.00
2022-10-17T09:29:36.918Z,18.00
2022-10-17T09:32:14.867Z,18.10
2022-10-17T09:34:41.663Z,18.20
2022-10-17T09:37:14.638Z,18.20
2022-10-17T09:39:42.844Z,18.20
2022-10-17T09:42:21.313Z,18.30
2022-10-17T09:44:56.381Z,18.30
2022-10-17T09:47:39.118Z,18.40
2022-10-17T09:50:15.507Z,18.50
2022-10-17T09:52:47.634Z,18.60
2022-10-17T09:55:22.066Z,18.70
2022-10-17T09:57:57.060Z,18.70
2022-10-17T10:00:30.365Z,18.70
2022-10-17T10:03:11.057Z,18.80
2022-10-17T10:05:37.695Z,18.80
2022-10-17T10:08:14.830Z,18.90
2022-10-17T10:10:43.174Z,19.00
2022-10-17T10:13:12.772Z,19.00
2022-10-17T10:15:43.858Z,19.10
2022-10-17T10:18:31.823Z,19.10
2022-10-17T10:21:14.716Z,19.20
2022-10-17T10:23:46.237Z,19.40
2022-10-17T10:26:24.233Z,19.50
2022-10-17T10:29:00.930Z,19.60
2022-10-17T10:31:34.495Z,19.80
2022-10-17T10:34:11.309Z,19.90
2022-10-17T10:36:47.425Z,20.10
2022-10-17T10:39:28.572Z,20.30
2022-10-17T10:41:55.524Z,20.40
2022-10-17T10:44:26.112Z,20.60
2022-10-17T10:47:16.893Z,20.60
2022-10-17T10:49:46.257Z,20.70
2022-10-17T10:52:43.290Z,20.80
2022-10-17T10:55:36.842Z,21.00
2022-10-17T10:58:32.538Z,21.20
2022-10-17T11:01:05.864Z,21.40
2022-10-17T11:06:22.483Z,22.80
2022-10-17T11:09:00.273Z,22.70
2022-10-17T11:11:33.815Z,22.60
2022-10-17T11:14:27.441Z,22.70
2022-10-17T11:17:10.422Z,22.80
2022-10-17T11:19:59.118Z,22.90
2022-10-17T11:22:34.396Z,23.00
2022-10-17T11:25:09.391Z,23.10
2022-10-17T11:27:35.940Z,23.10
2022-10-17T11:30:03.834Z,23.30
2022-10-17T11:32:35.239Z,23.60
2022-10-17T11:35:27.924Z,23.80
2022-10-17T11:38:35.919Z,23.90
2022-10-17T11:41:05.014Z,24.00
2022-10-17T11:43:34.388Z,24.10
2022-10-17T11:46:19.017Z,24.30
2022-10-17T11:49:20.114Z,24.30
2022-10-17T11:52:07.459Z,24.30
2022-10-17T11:54:41.703Z,24.20
2022-10-17T11:57:46.353Z,24.20
2022-10-17T12:00:27.761Z,24.20
2022-10-17T12:03:18.208Z,24.20
2022-10-17T12:05:50.808Z,24.20
2022-10-17T12:08:50.650Z,24.20
2022-10-17T12:11:34.560Z,24.20
2022-10-17T12:14:05.805Z,24.20
2022-10-17T12:16:35.451Z,24.20
2022-10-17T12:19:02.014Z,24.30
2022-10-17T12:21:49.243Z,24.30
2022-10-17T12:24:54.271Z,24.50
2022-10-17T12:27:42.259Z,24.50
2022-10-17T12:30:26.468Z,24.60
2022-10-17T12:33:23.556Z,24.50
2022-10-17T12:35:52.074Z,24.30
2022-10-17T12:38:18.615Z,24.20
2022-10-17T12:40:49.047Z,24.60
2022-10-17T12:43:15.740Z,25.20
2022-10-17T12:45:55.768Z,24.90
2022-10-17T12:48:34.321Z,25.00
2022-10-17T12:54:01.876Z,25.10
2022-10-17T12:56:36.754Z,25.20
2022-10-17T12:59:15.243Z,25.20
2022-10-17T13:01:46.530Z,25.20
2022-10-17T13:04:13.343Z,25.20
2022-10-17T13:06:46.580Z,25.30
2022-10-17T13:09:31.566Z,25.30
2022-10-17T13:12:02.264Z,25.30
2022-10-17T13:14:29.641Z,25.40
2022-10-17T13:17:01.642Z,25.30
2022-10-17T13:19:43.522Z,25.30
2022-10-17T13:22:23.662Z,25.30
2022-10-17T13:24:52.191Z,25.60
2022-10-17T13:27:34.381Z,25.70
2022-10-17T13:30:22.140Z,26.10
2022-10-17T13:32:48.701Z,26.50
2022-10-17T13:35:27.779Z,26.20
2022-10-17T13:38:07.425Z,26.00
2022-10-17T13:40:50.015Z,25.90
2022-10-17T13:43:24.072Z,26.20
2022-10-17T13:45:53.715Z,26.60
2022-10-17T13:48:24.762Z,26.40
2022-10-17T13:50:56.382Z,26.30
2022-10-17T13:53:26.520Z,26.00
2022-10-17T13:56:16.168Z,25.80
2022-10-17T13:58:57.257Z,25.70
2022-10-17T14:01:26.285Z,25.60
2022-10-17T14:04:07.167Z,25.40
2022-10-17T14:06:34.392Z,25.10
2022-10-17T14:09:05.222Z,25.00
2022-10-17T14:11:39.302Z,24.80
2022-10-17T14:14:18.735Z,24.70
2022-10-17T14:16:45.512Z,24.60
2022-10-17T14:19:26.846Z,24.50
2022-10-17T14:21:56.812Z,24.30
2022-10-17T14:24:23.353Z,24.30
2022-10-17T14:26:55.432Z,24.30
2022-10-17T14:29:27.197Z,24.10
2022-10-17T14:32:01.439Z,24.00
2022-10-17T14:34:35.525Z,24.10
2022-10-17T14:37:02.731Z,24.00
2022-10-17T14:39:29.737Z,23.90
2022-10-17T14:41:58.698Z,23.80
2022-10-17T14:44:35.805Z,23.80
2022-10-17T14:47:38.176Z,23.80
2022-10-17T14:50:11.576Z,23.80
2022-10-17T14:52:38.966Z,23.60
2022-10-17T14:55:25.572Z,23.60
2022-10-17T14:57:52.128Z,23.60
2022-10-17T15:00:20.075Z,23.60
2022-10-17T15:02:47.932Z,23.50
2022-10-17T15:05:15.555Z,23.40
2022-10-17T15:07:42.864Z,23.40
2022-10-17T15:10:31.985Z,23.30
2022-10-17T15:13:16.394Z,23.30
2022-10-17T15:15:51.172Z,23.30
2022-10-17T15:18:18.008Z,23.30
2022-10-17T15:20:44.687Z,23.20
2022-10-17T15:23:11.296Z,23.20
2022-10-17T15:25:38.833Z,23.10
2022-10-17T15:28:05.505Z,23.10
2022-10-17T15:30:35.325Z,22.90
2022-10-17T15:33:01.880Z,22.80
2022-10-17T15:35:28.967Z,22.70
2022-10-17T15:37:55.552Z,22.60
2022-10-17T15:40:25.017Z,22.50
2022-10-17T15:42:52.096Z,22.50
2022-10-17T15:45:21.569Z,22.40
2022-10-17T15:47:53.753Z,22.30
2022-10-17T15:50:21.692Z,22.20
2022-10-17T15:52:50.937Z,22.20
2022-10-17T15:55:18.045Z,22.10
2022-10-17T15:57:47.014Z,22.00
2022-10-17T16:00:21.397Z,21.90
2022-10-17T16:02:49.369Z,21.80
2022-10-17T16:05:25.958Z,21.70
2022-10-17T16:07:53.854Z,21.60
2022-10-17T16:10:21.545Z,21.40
2022-10-17T16:12:49.795Z,21.30
2022-10-17T16:15:19.491Z,21.20
2022-10-17T16:17:46.564Z,21.10
2022-10-17T16:20:13.705Z,21.00
2022-10-17T16:22:42.519Z,20.90
2022-10-17T16:25:19.284Z,20.80
2022-10-17T16:27:47.831Z,20.70
2022-10-17T16:30:15.087Z,20.60
2022-10-17T16:32:41.835Z,20.50
2022-10-17T16:35:11.243Z,20.50
2022-10-17T16:37:37.906Z,20.40
2022-10-17T16:40:05.026Z,20.30
2022-10-17T16:42:32.026Z,20.30
2022-10-17T16:44:58.840Z,20.20
2022-10-17T16:47:25.539Z,20.10
2022-10-17T16:49:52.061Z,20.00
2022-10-17T16:52:18.710Z,19.90
2022-10-17T16:54:45.521Z,19.80
2022-10-17T16:57:12.178Z,19.80
2022-10-17T16:59:38.803Z,19.80
2022-10-17T17:02:05.474Z,19.70
2022-10-17T17:04:32.161Z,19.60
2022-10-17T17:06:58.811Z,19.50
2022-10-17T17:09:25.577Z,19.40
2022-10-17T17:11:52.171Z,19.40
2022-10-17T17:14:18.883Z,19.30
2022-10-17T17:16:45.540Z,19.30
2022-10-17T17:19:14.329Z,19.20
2022-10-17T17:21:47.499Z,19.20
2022-10-17T17:24:14.447Z,19.10
2022-10-17T17:26:41.519Z,19.10
2022-10-17T17:29:09.141Z,19.00
2022-10-17T17:31:36.104Z,19.00
2022-10-17T17:34:03.221Z,18.90
2022-10-17T17:36:32.660Z,18.90
2022-10-17T17:39:00.809Z,18.80
2022-10-17T17:41:27.931Z,18.80
2022-10-17T17:43:55.655Z,18.80
2022-10-17T17:46:24.193Z,18.80
2022-10-17T17:48:52.256Z,18.80
2022-10-17T17:51:24.252Z,18.80
2022-10-17T17:53:54.599Z,18.80
2022-10-17T17:56:24.745Z,18.80
2022-10-17T17:58:58.363Z,18.80
2022-10-17T18:01:27.431Z,18.70
2022-10-17T18:03:55.349Z,18.70
2022-10-17T18:06:22.915Z,18.70
2022-10-17T18:08:52.105Z,18.70
2022-10-17T18:11:21.904Z,18.70
2022-10-17T18:14:00.987Z,18.70
2022-10-17T18:16:29.246Z,18.80
2022-10-17T18:18:56.435Z,18.80
2022-10-17T18:21:23.473Z,18.70
2022-10-17T18:23:51.633Z,18.70
2022-10-17T18:26:18.687Z,18.70
2022-10-17T18:28:45.463Z,18.70
2022-10-17T18:31:19.810Z,18.60
2022-10-17T18:33:46.552Z,18.60
2022-10-17T18:36:15.056Z,18.60
2022-10-17T18:38:42.616Z,18.50
2022-10-17T18:41:12.454Z,18.50
2022-10-17T18:43:40.697Z,18.40
2022-10-17T18:46:13.878Z,18.40
2022-10-17T18:48:44.190Z,18.40
2022-10-17T18:51:11.170Z,18.30
2022-10-17T18:53:42.901Z,18.30
2022-10-17T18:56:10.129Z,18.20
2022-10-17T18:58:37.979Z,18.30
2022-10-17T19:01:06.912Z,18.30
2022-10-17T19:03:33.718Z,18.30
2022-10-17T19:06:02.047Z,18.30
2022-10-17T19:08:29.048Z,18.30
2022-10-17T19:10:55.974Z,18.30
2022-10-17T19:13:22.607Z,18.30
2022-10-17T19:15:49.201Z,18.20
2022-10-17T19:18:15.856Z,18.20
2022-10-17T19:20:42.573Z,18.20
2022-10-17T19:23:09.193Z,18.20
2022-10-17T19:25:35.776Z,18.20
2022-10-17T19:28:02.403Z,18.20
2022-10-17T19:30:29.032Z,18.20
2022-10-17T19:32:55.670Z,18.20
2022-10-17T19:35:22.269Z,18.10
2022-10-17T19:37:48.848Z,18.00
2022-10-17T19:40:15.495Z,18.10
2022-10-17T19:42:42.097Z,18.10
2022-10-17T19:45:09.589Z,18.00
2022-10-17T19:47:36.224Z,18.00
2022-10-17T19:52:30.785Z,17.90
2022-10-17T19:54:57.764Z,17.90
2022-10-17T19:57:25.674Z,17.90
2022-10-17T19:59:55.833Z,17.80
2022-10-17T20:02:23.896Z,17.70
2022-10-17T20:05:06.269Z,17.80
2022-10-17T20:07:37.082Z,17.80
2022-10-17T20:10:03.940Z,17.70
2022-10-17T20:12:30.631Z,17.70
2022-10-17T20:14:57.396Z,17.70
2022-10-17T20:17:24.154Z,17.60
2022-10-17T20:19:51.021Z,17.70
2022-10-17T20:22:17.687Z,17.60
2022-10-17T20:24:44.284Z,17.60
2022-10-17T20:27:11.017Z,17.70
2022-10-17T20:29:37.998Z,17.60
2022-10-17T20:32:04.819Z,17.70
2022-10-17T20:34:35.301Z,17.60
2022-10-17T20:37:02.272Z,17.70
2022-10-17T20:39:29.007Z,17.70
2022-10-17T20:41:55.667Z,17.70
2022-10-17T20:44:22.561Z,17.70
2022-10-17T20:47:01.033Z,17.60
2022-10-17T20:49:28.537Z,17.60
2022-10-17T20:51:55.185Z,17.70
2022-10-17T20:54:22.298Z,17.60
2022-10-17T20:56:49.113Z,17.70
2022-10-17T20:59:17.306Z,17.80
2022-10-17T21:01:45.129Z,17.70
2022-10-17T21:04:45.234Z,17.70
2022-10-17T21:06:59.510Z,17.70
2022-10-17T21:09:26.285Z,17.80
2022-10-17T21:11:55.455Z,17.80
2022-10-17T21:14:23.638Z,17.80
2022-10-17T21:16:51.988Z,17.70
2022-10-17T21:19:18.617Z,17.70
2022-10-17T21:21:46.472Z,17.70
2022-10-17T21:24:16.899Z,17.70
2022-10-17T21:26:45.533Z,17.70
2022-10-17T21:29:13.166Z,17.70
2022-10-17T21:31:41.517Z,17.70
2022-10-17T21:34:11.365Z,17.60
2022-10-17T21:36:38.331Z,17.60
2022-10-17T21:39:05.438Z,17.60
2022-10-17T21:41:32.381Z,17.70
2022-10-17T21:44:05.216Z,17.70
2022-10-17T21:46:31.939Z,17.70
2022-10-17T21:49:00.178Z,17.60
2022-10-17T21:51:27.451Z,17.60
2022-10-17T21:53:55.891Z,17.60
2022-10-17T21:56:30.599Z,17.60
2022-10-17T21:58:58.567Z,17.60
2022-10-17T22:01:28.575Z,17.60
2022-10-17T22:03:58.404Z,17.60
2022-10-17T22:06:42.543Z,17.60
2022-10-17T22:09:16.018Z,17.60
2022-10-17T22:11:45.975Z,17.50
2022-10-17T22:14:15.477Z,17.50
2022-10-17T22:16:42.215Z,17.50
2022-10-17T22:19:10.360Z,17.50
2022-10-17T22:21:37.507Z,17.50
2022-10-17T22:24:08.242Z,17.50
2022-10-17T22:26:36.628Z,17.50
2022-10-17T22:29:04.813Z,17.40
2022-10-17T22:31:31.526Z,17.50
2022-10-17T22:33:58.034Z,17.50
2022-10-17T22:36:24.880Z,17.40
2022-10-17T22:38:51.693Z,17.30
2022-10-17T22:41:18.507Z,17.40
2022-10-17T22:43:44.995Z,17.40
2022-10-17T22:46:13.845Z,17.40
2022-10-17T22:48:40.611Z,17.40
2022-10-17T22:51:07.478Z,17.40
2022-10-17T22:53:35.046Z,17.40
2022-10-17T22:56:19.478Z,17.40
2022-10-17T22:58:46.849Z,17.30
2022-10-17T23:01:15.922Z,17.30
2022-10-17T23:03:42.727Z,17.30
2022-10-17T23:06:09.628Z,17.30
2022-10-17T23:08:36.402Z,17.30
2022-10-17T23:11:03.185Z,17.30
2022-10-17T23:13:29.702Z,17.20
2022-10-17T23:15:57.096Z,17.20
2022-10-17T23:18:25.523Z,17.20
2022-10-17T23:20:52.785Z,17.10
2022-10-17T23:23:20.125Z,17.10
2022-10-17T23:25:46.801Z,17.20
2022-10-17T23:28:13.923Z,17.10
2022-10-17T23:30:41.059Z,17.00
2022-10-17T23:33:07.663Z,17.00
2022-10-17T23:35:35.245Z,17.00
2022-10-17T23:38:01.828Z,17.00
2022-10-17T23:40:28.381Z,17.00
2022-10-17T23:42:54.958Z,17.00
2022-10-17T23:45:21.814Z,17.00
2022-10-17T23:47:48.385Z,17.10
2022-10-17T23:50:15.041Z,17.00
2022-10-17T23:52:41.525Z,17.00
2022-10-17T23:55:08.811Z,17.00
2022-10-17T23:57:35.373Z,17.00
